Running the Rails

back to results

Aug. 21, 2011

Running the Rails
Ypsilanti, MI
Provided by Everal Race Management and Gary Olsen


Running The Rails 10k Run
Age Group Results
August 21, 2011
Race Timing Services
Overall Female Open Winners

Total
Place Name City Bib No Age Overall Time Pace
1 Andrea Yentz Ypsilanti MI 49 29 19 48:12 7:46/M
2 Emily O'Dea Canton MI 35 30 21 49:39 8:00/M

Overall Male Open Winners

Total
Place Name City Bib No Age Overall Time Pace
1 Joe Maki Ypsilanti MI 123 21 1 32:44 5:17/M
2 Neil Atzinger 118 25 2 35:04 5:39/M

Overall Female Masters Winners

Total
Place Name City Bib No Age Overall Time Pace
1 Julia Collins Ypsilanti MI 28 49 33 51:28 8:18/M
2 Kristin Klevering Ann Arbor MI 43 42 45 53:53 8:41/M

Overall Male Masters Winners

Total
Place Name City Bib No Age Overall Time Pace
1 Keith Graboske Warren MI 124 50 3 41:23 6:40/M
2 Thomas Eberts Saline MI 119 46 9 44:42 7:13/M

Intermediate

Total
Place Name City Bib No Age Overall Time Pace
1 Harry Barrmorris Ann Arbor MI 2 16 8 44:32 7:11/M

Female 19 to 24

Total
Place Name City Bib No Age Overall Time Pace
1 Lauren Carley Auburn Hills MI 69 24 75 1:03:57 10:19/M

Male 19 to 24

Total
Place Name City Bib No Age Overall Time Pace
1 D'Real Ryan Graham Ypsilanti MI 111 24 10 45:04 7:16/M
2 Anthony Durbin Ypsilanti MI 77 21 28 51:06 8:15/M

Female 25 to 29

Total
Place Name City Bib No Age Overall Time Pace
1 Stephanie Wagner Dearborn MI 4 25 30 51:10 8:15/M
2 Liz Skene Ypsilanti MI 102 26 52 56:50 9:10/M
3 Liz Smith Ann Arbor MI 109 25 53 57:03 9:12/M
4 Sierra Donlon Ypsilanti MI 20 28 71 1:02:46 10:07/M
5 Sarah Faix Ann Arbor MI 89 29 73 1:03:01 10:10/M
6 Amy Wiseman Ypsilanti MI 1 29 80 1:05:22 10:33/M
7 Katie King Canton MI 44 29 98 1:14:57 12:05/M
8 Maureen McCormick Canton MI 45 27 103 1:23:06 13:24/M

Male 25 to 29

Total
Place Name City Bib No Age Overall Time Pace
1 Sean Hathaway Casey Ann Arbor MI 5 29 4 41:26 6:41/M
2 Trent Stephens Ypsilanti MI 59 26 5 41:47 6:44/M
3 Alan Newmeyer Ann Arbor MI 57 26 7 43:48 7:04/M
4 Graham Abel Auburn Hills MI 68 26 12 45:32 7:21/M
5 Ben Salvette Ann Arbor MI 36 27 24 50:17 8:07/M

Female 30 to 34

Total
Place Name City Bib No Age Overall Time Pace
1 Christina Harman Belleville MI 79 33 29 51:07 8:15/M
2 Sarah Lecouffe Taylor MI 63 32 36 51:49 8:21/M
3 Joy Meadows Ypsilanti MI 64 34 37 51:52 8:22/M
4 Maria Kirk Livonia MI 50 33 38 51:53 8:22/M
5 Hilary Johnson Canton MI 19 31 47 55:15 8:55/M
6 Emily Dunn Milan MI 103 32 59 58:24 9:25/M
7 Sarah Dilsizian S Rockwood MI 51 32 78 1:05:15 10:31/M
8 Stephanie Rubley Temperance MI 116 33 81 1:05:33 10:34/M
9 Wendy Flemmings Temperance MI 81 33 82 1:05:43 10:36/M
10 Molly Brown Temperance MI 115 34 83 1:05:43 10:36/M
11 Rachel Brichta Ypsilanti MI 62 34 84 1:06:31 10:44/M
12 Chastity Van Pelt Ypsilanti MI 11 31 88 1:08:44 11:05/M
13 Rhonda Cupp Whitmore Lake MI 110 34 96 1:13:21 11:50/M
14 Maggie McCasey Belleville MI 23 33 101 1:17:30 12:30/M

Male 30 to 34

Total
Place Name City Bib No Age Overall Time Pace
1 Brennan Nielsen Ooltewah TN 32 30 6 42:17 6:49/M
2 Andrew Siniarski Livonia MI 73 34 17 46:50 7:33/M
3 Matthew Obenchain Ann Arbor MI 26 32 31 51:25 8:18/M
4 George Estabrook Ypsilanti MI 86 30 51 56:39 9:08/M
5 Steven Adams Clinton MI 9 31 87 1:07:19 10:51/M

Female 35 to 39

Total
Place Name City Bib No Age Overall Time Pace
1 Jamie Haberichter Ann Arbor MI 48 37 26 50:38 8:10/M
2 Laura Morris Pinckney MI 52 36 57 58:21 9:25/M
3 Amy Sielaff Milan MI 120 37 58 58:23 9:25/M
4 Felicia Brabec Ann Arbor MI 105 37 67 1:01:40 9:57/M
5 Nicole Ridenour Ypsilanti MI 42 38 70 1:02:17 10:03/M
6 Pam O'Neal Ann Arbor MI 98 37 76 1:04:52 10:28/M
7 Jennifer Wolf Ann Arbor MI 104 35 77 1:04:56 10:28/M
8 Lara Zielin Ypsilanti MI 7 35 86 1:06:52 10:47/M
9 Amanda Pelukas Canton MI 25 38 91 1:10:51 11:26/M
10 Neelima Chalasani Ypsilanti MI 91 36 100 1:15:24 12:10/M
11 Colleen Thompson Ypsilanti MI 55 38 102 1:17:36 12:31/M

Male 35 to 39

Total
Place Name City Bib No Age Overall Time Pace
1 Wolfgang Schauss Ypsilanti MI 121 38 16 46:33 7:30/M
2 Shayne Wiesemann Ypsilanti MI 40 35 42 53:01 8:33/M
3 Greg Sammut Dearborn MI 3 36 44 53:35 8:39/M

Female 40 to 44

Total
Place Name City Bib No Age Overall Time Pace
1 Denise Dasher Temperance MI 53 42 48 55:54 9:01/M
2 Martha Gordon Ann Arbor MI 56 41 60 59:13 9:33/M
3 Jill Ferris Manchester MI 94 44 68 1:02:02 10:00/M
4 Bonnie Torti Ann Arbor MI 114 42 72 1:02:53 10:09/M
5 Amy Connelly Canton MI 60 40 79 1:05:15 10:31/M
6 Stacie Larabell Saline MI 92 43 89 1:09:05 11:09/M
7 Melissa Williams Bloomfield Hills M 18 42 92 1:10:52 11:26/M
8 Laura Seifert Lambertville MI 67 42 93 1:11:08 11:28/M
9 Lori Walling Lambertville MI 70 43 94 1:11:09 11:29/M

Male 40 to 44

Total
Place Name City Bib No Age Overall Time Pace
1 Matt Ridenour Ypsilanti MI 41 41 11 45:31 7:20/M
2 Jeff Schulz Ypsilanti MI 6 44 13 45:56 7:25/M
3 Joe Bojman Southfield MI 108 41 15 46:01 7:25/M
4 Paul Abrahamse Ypsilanti MI 74 42 27 50:55 8:13/M
5 Joe Pelukas Canton MI 24 40 34 51:32 8:19/M
6 Sean Bellingham Belleville MI 99 40 35 51:48 8:21/M
7 Joe Szafarowicz Sylvania OH 17 40 41 52:51 8:31/M
8 Shannon Gordon Ypsialnti MI 107 44 54 57:17 9:14/M
9 Andrew Douglas Milan MI 93 41 62 59:27 9:35/M

Female 45 to 49

Total
Place Name City Bib No Age Overall Time Pace
1 Carolan Okeefe Belleville MI 106 48 65 1:01:07 9:51/M
2 Annette David Trenton MI 100 45 74 1:03:42 10:16/M
3 Sandy Bauerschmidt East Aurora NY 16 46 85 1:06:40 10:45/M
4 Stacey Fallis Ypsilanti MI 12 45 90 1:10:19 11:20/M

Male 45 to 49

Total
Place Name City Bib No Age Overall Time Pace
1 Michael Brower Ypsilanti MI 8 46 14 45:59 7:25/M
2 Jim Zittel Waterford MI 126 48 40 52:39 8:30/M
3 John Boyd Ann Arbor MI 76 48 43 53:13 8:35/M
4 Steve Miller Westland MI 85 45 63 59:49 9:39/M
5 Joe Reynolds Ypsilanti MI 83 46 64 1:00:54 9:49/M
6 Steven Russie Ypsilanti MI 61 45 69 1:02:05 10:01/M
7 Dan Bergin Pinckney MI 125 47 97 1:14:19 11:59/M

Female 50 to 54

Total
Place Name City Bib No Age Overall Time Pace
1 Jan Wiseman Ypsilanti MI 15 52 55 58:12 9:23/M
2 Debbie Wiley Howell MI 31 54 56 58:14 9:24/M

Male 50 to 54

Total
Place Name City Bib No Age Overall Time Pace
1 Mark Slade Ann Arbor MI 71 51 18 47:02 7:35/M
2 Kevin Stephens Ypsilanti MI 58 52 22 49:40 8:01/M
3 Steve Collins Ypsilanti MI 29 51 23 49:52 8:03/M
4 Domingo Valadez Temperance MI 54 52 50 56:20 9:05/M

Male 55 to 59

Total
Place Name City Bib No Age Overall Time Pace
1 John Salvette Ann Arbor MI 37 55 25 50:18 8:07/M
2 Stephen Davis Durham NC 14 58 32 51:26 8:18/M
3 Timothy Williams Ann Arbor MI 13 59 39 52:19 8:26/M
4 Randy Gardner Livonia MI 39 55 49 56:08 9:03/M
5 Robert Knudsen Lincoln Park MI 101 59 61 59:21 9:34/M

Female 60 to 69

Total
Place Name City Bib No Age Overall Time Pace
1 Adele Sowinski Ann Arbor MI 122 65 95 1:12:13 11:39/M
2 Nancy Hathaway Hartford MI 10 60 104 1:31:21 14:44/M

Male 60 to 69

Total
Place Name City Bib No Age Overall Time Pace
1 Sheik Barker Ann Arbor MI 117 61 20 49:16 7:57/M
2 Larry Gray Ann Arbor MI 30 61 66 1:01:27 9:55/M
3 William Serrell Ypsilanti MI 112 60 99 1:15:23 12:10/M

Male 70 and over

Total
Place Name City Bib No Age Overall Time Pace
1 John Wehrly Madison Heights MI 97 71 46 55:09 8:54/M





Running The Rails 5k Run/Walk
Age Group Results
August 21, 2011
Race Timing Services
Overall Female Open Winners

Total
Place Name City Bib No Age Overall Time Pace
1 Erin Omara Ypsilanti MI 334 27 6 19:24 6:15/M
2 Sophia Stevens Ypsilanti MI 355 20 11 20:34 6:38/M

Overall Male Open Winners

Total
Place Name City Bib No Age Overall Time Pace
1 Lindsey Lalonde Ann Arbor MI 346 26 1 17:17 5:35/M
2 Robert Duerksen Ann Arbor MI 349 50 2 17:46 5:44/M

Overall Female Masters Winners

Total
Place Name City Bib No Age Overall Time Pace
1 Nancy Damm Ann Arbor MI 336 44 27 23:14 7:30/M
2 Lisa Brower Ypsilanti MI 164 43 34 23:55 7:43/M

Overall Male Masters Winners

Total
Place Name City Bib No Age Overall Time Pace
1 Adan Gomez Livonia MI 166 46 5 19:18 6:14/M
2 Robert Garrison Saline MI 321 47 9 19:52 6:25/M

Missing Information

Total
Place Name City Bib No Age Overall Time Pace
1 Kathryn Zaker Dearborn MI 327 0 142 37:08 11:59/M

Missing Information

Total
Place Name City Bib No Age Overall Time Pace
1 Ryan Sanchez Tacoma WA 358 0 23 22:48 7:21/M

Bantam

Total
Place Name City Bib No Age Overall Time Pace
1 Katy Bajcz Ypsilanti MI 179 7 164 42:10 13:36/M

Bantam

Total
Place Name City Bib No Age Overall Time Pace
1 Davis Malmer Ypsilanti MI 177 9 77 28:17 9:07/M
2 Jack Bajcz Ypsilanti MI 178 9 144 37:40 12:09/M
3 Hunter Kaukowski Allen Park MI 338 7 161 41:53 13:31/M

Youth

Total
Place Name City Bib No Age Overall Time Pace
1 Jordyn Dresch Ypsilanti MI 333 13 60 27:13 8:47/M
2 Brianna Murphy Pinckney MI 212 13 71 27:53 9:00/M

Youth

Total
Place Name City Bib No Age Overall Time Pace
1 Chris Brower Ypsilanti MI 163 13 24 22:59 7:25/M

Intermediate

Total
Place Name City Bib No Age Overall Time Pace
1 Alexis Nowicki Ypsilanti MI 87 16 26 23:09 7:28/M
2 Katherine Stock Flat Rock MI 332 16 42 25:10 8:07/M

Intermediate

Total
Place Name City Bib No Age Overall Time Pace
1 Thomas Rinke Dearborn MI 286 15 47 25:57 8:22/M
2 Dylan Raisanen Grass Lake MI 233 15 141 37:03 11:57/M

Young

Total
Place Name City Bib No Age Overall Time Pace
1 Andrew Rinke Dearborn MI 284 17 16 21:56 7:05/M

Female 19 to 24

Total
Place Name City Bib No Age Overall Time Pace
1 Rachel Powers Ann Arbor MI 227 23 30 23:32 7:35/M
2 Rachel Bayham Ypsilanti MI 278 22 68 27:51 8:59/M
3 Shannon Heasley Lambertville MI 257 19 69 27:52 8:59/M
4 Abby Yoskovich Milan MI 151 23 82 28:45 9:16/M
5 Lindsey Johnson Plymouth MI 156 21 108 30:55 9:58/M
6 Nikki Koivunen South Lyon MI 269 22 114 32:02 10:20/M
7 Michele Jobst Ypsilanti MI 248 20 119 33:27 10:47/M
8 Paige Jowski Canton MI 207 20 121 33:34 10:50/M
9 Lacey Mead Grass Lake MI 261 21 125 34:27 11:07/M
10 Kirstin Koivunen South Lyon MI 357 20 126 34:27 11:07/M
11 Rachel Usher Grass Lake MI 262 22 127 34:28 11:07/M
12 Amanda Short Ypsilanti MI 320 23 137 36:45 11:51/M
13 Lacey Brewington Grass Lake MI 232 20 143 37:19 12:02/M
14 Connie Locker Ypsilanti MI 280 23 145 38:25 12:24/M

Male 19 to 24

Total
Place Name City Bib No Age Overall Time Pace
1 David Hawkins Ann Arbor MI 347 24 4 19:13 6:12/M
2 Chad Nielsen Ann Arbor MI 345 23 20 22:24 7:14/M
3 Garrett Stephens Ypsilanti MI 253 23 29 23:29 7:35/M
4 Eric Hoppe Ypsilanti MI 264 23 33 23:40 7:38/M
5 Lance Fortney Wolverine Lake MI 256 19 45 25:48 8:19/M
6 Ryan Zaluzec Canton MI 206 20 52 26:20 8:30/M
7 Cody Ingle Ypsilanti MI 263 23 87 29:17 9:27/M
8 Colin Seaman Ann Arbor MI 240 19 109 31:25 10:08/M
9 Joseph Nitkiewicz Ypsilanti MI 168 24 118 33:25 10:47/M
10 Inam Kang Canton MI 199 19 165 43:00 13:52/M

Female 25 to 29

Total
Place Name City Bib No Age Overall Time Pace
1 Zera Anderson Ypsilanti MI 225 29 22 22:46 7:21/M
2 Emily Morris Carleton MI 211 27 79 28:22 9:09/M
3 Annie Riddle Milan MI 173 29 81 28:40 9:15/M
4 Suzanne Albert Ann Arbor MI 270 25 84 29:08 9:24/M
5 Shannon Harbin Ypsilanti MI 204 25 88 29:20 9:28/M
6 Rebecca Mubaraz Belleville MI 328 29 91 29:38 9:34/M
7 Rose Hacker Belleville MI 329 28 92 29:44 9:35/M
8 Jessica Brown Tecumseh MI 354 29 100 30:27 9:49/M
9 Alma Ibanez Ferndale MI 202 29 140 37:00 11:56/M
10 Kimberly Hodges Ann Arbor MI 191 25 157 41:28 13:23/M
11 Ashley Barbour Ann Arbor MI 192 25 158 41:39 13:26/M

Male 25 to 29

Total
Place Name City Bib No Age Overall Time Pace
1 Will Lilly Belleville MI 337 28 8 19:41 6:21/M
2 Taylor Begley Ann Arbor MI 157 28 17 22:00 7:06/M
3 Ryan Arnold Howell MI 224 28 95 30:03 9:42/M

Female 30 to 34

Total
Place Name City Bib No Age Overall Time Pace
1 Kelly Weger Ypsilanti MI 331 31 25 23:06 7:27/M
2 Ashley Langer Ann Arbor MI 190 31 32 23:37 7:37/M
3 Bethany Wylie Saline MI 230 32 39 24:24 7:52/M
4 Adrienne Gwizdala Bay City MI 244 31 56 26:31 8:33/M
5 Susie Kling-Colson Ypsilanti MI 193 33 65 27:39 8:55/M
6 Tara Truax Ypsilanti MI 203 34 72 27:57 9:01/M
7 Stacie Bukosky Ypsilanti MI 260 31 78 28:18 9:08/M
8 Jennifer Compton Gregory MI 295 34 89 29:31 9:31/M
9 Heather Freeling Ypsilanti MI 350 31 101 30:29 9:50/M
10 Cecilia Govrik Toledo OH 47 32 105 30:49 9:56/M
11 Tammy Swickerath Ypsilanti MI 251 34 106 30:53 9:58/M
12 Linda McMullen Plymouth MI 205 34 112 31:42 10:14/M
13 Dawn Krenz Ypsilanti MI 175 32 120 33:33 10:49/M
14 Stephanie Kingsley Dexter MI 185 30 123 34:02 10:59/M
15 Bethany Lundquist Ypsilanti MI 208 32 132 35:54 11:35/M
16 Jennifer McPherson Ypsilanti MI 359 34 148 38:59 12:35/M
17 Tina Kelley Mcminnville OR 275 32 152 39:54 12:52/M
18 Rachel Lynn Detroit MI 38 30 153 40:04 12:55/M
19 Melissa Knitter Ann Arbor MI 294 31 155 40:45 13:09/M
20 Stephanie Stearns Ypsilanti MI 195 30 159 41:39 13:26/M
21 Heather Bryant Ann Arbor MI 287 34 169 45:23 14:38/M
22 Nicole Henley Ypsilanti MI 84 33 170 45:40 14:44/M

Male 30 to 34

Total
Place Name City Bib No Age Overall Time Pace
1 Eric Curtiss Mt. Pleasant MI 277 30 7 19:40 6:21/M
2 Charles Leister Ypsilanti MI 268 34 14 21:23 6:54/M
3 Dennis Heinz Ypsilanti MI 323 31 40 24:33 7:55/M
4 Dan Powers Ann Arbor MI 226 30 44 25:24 8:12/M
5 Chris Seaman Ypsilanti MI 213 33 48 26:06 8:25/M
6 Sean Williams Ann Arbor MI 238 34 50 26:14 8:28/M
7 Christopher Bukosky Ypsilanti MI 250 31 51 26:16 8:28/M
8 Phillip Wagner Ypsilanti MI 266 33 53 26:22 8:30/M
9 Sean Hanthorn Belleville MI 169 32 54 26:27 8:32/M
10 Andy Govrik Toledo OH 46 33 61 27:17 8:48/M
11 Loren Lalonde Ann Arbor MI 167 30 62 27:24 8:50/M
12 Michael Cox Ypsilanti MI 170 30 93 29:50 9:37/M
13 Luis Duma Livonia MI 267 32 147 38:58 12:34/M
14 Gary Bowen Ypsilanti MI 344 33 167 44:25 14:20/M
15 Chris Richards Ypsilanti MI 343 34 175 50:22 16:15/M

Female 35 to 39

Total
Place Name City Bib No Age Overall Time Pace
1 Christine Peiter Chelsea MI 254 38 31 23:33 7:36/M
2 Charity Beeman Stockbridge MI 182 37 37 24:19 7:51/M
3 Shonnie Becker Ypsilanti MI 282 39 58 26:56 8:41/M
4 Michele Binge Taylor MI 214 37 64 27:32 8:53/M
5 Kara Zablocki Ypsilanti MI 194 35 73 27:57 9:01/M
6 Barb Ross Ypsilanti MI 242 38 83 28:48 9:17/M
7 Sara Waite Ypsilanti MI 291 37 102 30:29 9:50/M
8 Jennifer Taylor Pinckney MI 236 39 113 31:57 10:18/M
9 Rebecca Guidinger Ann Arbor MI 274 37 128 34:39 11:11/M
10 Trelawny Boynton Ann Arbor MI 198 36 129 34:45 11:13/M
11 Charmaine Gregory Ypsilanti MI 311 36 133 35:57 11:36/M
12 Sarah Lundquist Lansing MI 220 35 135 36:24 11:45/M
13 Rachel Young Ypsilanti MI 296 39 136 36:36 11:48/M
14 Sarah Musil Ypsilanti MI 319 39 146 38:42 12:29/M
15 Kristy Bajcz Ypsilanti MI 180 35 171 45:55 14:49/M
16 Christina McDonald Grand Blanc MI 162 38 176 50:29 16:17/M
17 Heidi Raisanen Grass Lake MI 235 38 183 55:20 17:51/M

Male 35 to 39

Total
Place Name City Bib No Age Overall Time Pace
1 Chris Berggren Ypsilanti MI 352 39 3 18:43 6:02/M
2 Tim Peiter Chelsea MI 255 39 12 20:34 6:38/M
3 Richard Fournier Canton MI 217 36 38 24:20 7:51/M
4 Joshua Slone Ferndale MI 219 35 57 26:36 8:35/M
5 Brandon Swickerath Ypsilanti MI 218 35 70 27:53 9:00/M
6 Ken Thompson Ypsilanti MI 326 39 76 28:01 9:02/M
7 Michael Musil Ypsilanti MI 318 38 98 30:19 9:47/M
8 Benoit Waite Ypsilanti MI 292 38 134 36:17 11:42/M
9 Brian Brichta Ypsilanti MI 171 36 138 36:50 11:53/M
10 Jonathan Gardner Ypsilanti MI 201 39 151 39:26 12:43/M
11 Max Bajcz Ypsilanti MI 181 37 163 42:02 13:34/M

Female 40 to 44

Total
Place Name City Bib No Age Overall Time Pace
1 Gerri Harmer Brownstown MI 221 43 55 26:28 8:32/M
2 Lori Heinlein Ann Arbor MI 228 42 67 27:41 8:56/M
3 Amy Malmer Ypsilanti MI 176 43 124 34:21 11:05/M
4 Carrie Gaffield Ann Arbor MI 165 43 184 1:06:57 21:36/M

Male 40 to 44

Total
Place Name City Bib No Age Overall Time Pace
1 Tom Heinlein Ann Arbor MI 229 43 10 20:01 6:27/M
2 Jeff Wickens Livonia MI 341 43 15 21:30 6:56/M
3 Chris Andrianopoulos Ann Arbor MI 293 43 18 22:13 7:10/M
4 Anthony Simmon Chesaning MI 246 43 46 25:55 8:22/M
5 Samuel Bills Ypsilanti MI 330 41 75 28:01 9:02/M
6 Patrick Morris Pinckney MI 231 41 99 30:20 9:47/M
7 Todd Kelley Mcminnville OR 276 43 149 39:00 12:35/M

Female 45 to 49

Total
Place Name City Bib No Age Overall Time Pace
1 Sheryl A Kusz Tecumseh MI 159 45 36 24:12 7:48/M
2 Lisa Zawadzki Saline MI 300 45 49 26:10 8:26/M
3 Jenni Jacobsen Superior Township 258 49 97 30:16 9:46/M
4 Carla Richards Ypsilanti MI 340 47 110 31:28 10:09/M
5 Felecia Studstill Detroit MI 252 47 130 35:03 11:18/M
6 Catherine Gubala Dearborn Heights M 243 48 150 39:05 12:36/M
7 Kathy Shaw Ann Arbor MI 302 45 179 52:07 16:49/M
8 Susan Brewington Grass Lake MI 234 48 182 55:01 17:45/M

Male 45 to 49

Total
Place Name City Bib No Age Overall Time Pace
1 Ray Bayham Ypsilanti MI 279 49 21 22:28 7:15/M
2 Larry O'Sullivan Ypsilanti MI 325 47 28 23:26 7:34/M
3 Ronald G Kusz Tecumseh MI 158 48 80 28:30 9:12/M
4 Kevin Hoxsey Holland MI 161 48 177 50:29 16:17/M

Female 50 to 54

Total
Place Name City Bib No Age Overall Time Pace
1 Melanie Moore Ypsilanti MI 335 53 103 30:38 9:53/M
2 Annie Ritter Ypsilanti MI 304 52 104 30:46 9:55/M
3 Deb Johnson Plymouth MI 155 50 122 33:57 10:57/M
4 Joann Crescio Grass Lake MI 189 53 131 35:36 11:29/M
5 Debbie Smith Ypsilanti MI 237 53 154 40:09 12:57/M
6 Barbara Hawkins Plymouth MI 222 52 160 41:39 13:26/M
7 Joan Blackley Plymouth MI 75 51 162 41:58 13:32/M
8 Lorene Petrucci Brighton MI 183 53 174 50:20 16:14/M
9 Vanessa Rowan Pinckney MI 186 51 180 52:07 16:49/M

Male 50 to 54

Total
Place Name City Bib No Age Overall Time Pace
1 Dave Thurston Ann Arbor MI 342 51 13 21:07 6:49/M
2 Al Johnson Plymouth MI 154 51 19 22:15 7:11/M
3 Wayne Nowicki Ypsilanti MI 88 54 35 24:09 7:47/M
4 Karl Brown Tecumseh MI 152 52 63 27:31 8:53/M
5 George Rinke Dearborn MI 285 50 66 27:41 8:56/M
6 Rick Dekeon Ann Arbor MI 356 53 74 27:58 9:01/M
7 David Anderson Ypsilanti MI 305 50 90 29:35 9:33/M
8 Scott Brodie Saline MI 22 50 107 30:54 9:58/M
9 Kenneth Seaman Ann Arbor MI 241 51 111 31:28 10:09/M

Female 55 to 59

Total
Place Name City Bib No Age Overall Time Pace
1 Sandy Reeber Ypsilanti MI 299 55 59 26:59 8:42/M
2 Irene Heinz Ypsilanti MI 324 58 96 30:08 9:43/M
3 Joanne Fell Bethlehem PA 290 55 115 32:31 10:29/M
4 Judith Rice Brighton MI 184 56 173 50:18 16:14/M
5 Martha Gardner Livonia MI 223 59 178 50:52 16:25/M
6 Pamela Bennett Ann Arbor MI 298 56 181 52:08 16:49/M

Male 55 to 59

Total
Place Name City Bib No Age Overall Time Pace
1 Paul Marsh Lansing MI 339 55 41 24:59 8:04/M
2 John Albert Whitmore Lake MI 271 57 85 29:08 9:24/M
3 Daniel Hoppe Ypsilanti MI 351 56 116 32:57 10:38/M
4 Rick Roe Ypsilanti MI 353 56 117 33:02 10:39/M
5 Mark Jacobsen Superior Township 259 55 156 41:07 13:16/M

Female 60 to 69

Total
Place Name City Bib No Age Overall Time Pace
1 Sue Stickel Ypsilanti MI 301 61 86 29:13 9:25/M
2 Bonnie Hall Ypsilanti MI 247 62 168 44:44 14:26/M
3 Cheryll Leonard Adrian MI 245 60 172 46:52 15:07/M

Male 60 to 69

Total
Place Name City Bib No Age Overall Time Pace
1 David Fisher Ann Arbor MI 322 61 43 25:16 8:09/M
2 Ray Montague Oregon OH 239 63 94 29:58 9:40/M

Male 70 and over

Total
Place Name City Bib No Age Overall Time Pace
1 Tom Whalen Ann Arbor MI 174 79 139 36:56 11:55/M
2 Reynolds Farley Ann Arbor MI 265 73 166 43:52 14:09/M





Running The Rails Kids Fun Run
Overall Finish List
August 21, 2011
Race Timing Services

Total
Place Name City Bib No Age Gend Age Group Time
1 Nolan Dresch 450 10 M 1 0-99 3:41
2 Finley Gordon Ann Arbor MI 463 8 M 2 0-99 4:15
3 Ayden Roupe New Boston MI 440 8 M 3 0-99 4:18
4 Caitlin Roupe New Boston MI 442 9 F 1 0-99 4:22
5 Evan Ridenour Ypsilanti MI 453 8 M 4 0-99 4:29
6 Breeann Roupe New Boston MI 441 6 F 2 0-99 4:31
7 Rex Bajcz Ypsilanti MI 446 4 M 5 0-99 4:46
8 Kenneth Gaffield Ann Arbor MI 444 8 M 6 0-99 4:50
9 Isabella Treglia Chelsea MI 462 7 F 3 0-99 4:52
10 Jenna Connelly Canton MI 455 6 F 4 0-99 5:00
11 Isabella Waite Ypsilanti MI 458 5 F 5 0-99 5:13
12 Conner Binge Taylor MI 451 6 M 7 0-99 5:13
13 Megan Neumann Ypsilanti MI 449 8 F 6 0-99 5:22
14 Gwenyth Guidinger Ann Arbor MI 456 7 F 7 0-99 5:29
15 Liam Ridenour Ypsilanti MI 454 5 M 8 0-99 5:45
16 Noah Douglas Milan MI 460 6 M 9 0-99 5:56
17 Lucas Fournier Canton MI 452 5 M 10 0-99 5:59
18 Olivia Guidinger Ann Arbor MI 457 5 F 8 0-99 5:59
19 Cameron McCasey Belleville MI 447 3 M 11 0-99 6:18
20 Erich Gaffield Ann Arbor MI 443 4 M 12 0-99 7:26
21 Zane Whitehead Ypsilanti MI 461 3 M 13 0-99 9:56
22 Xavier Cantrell Ypsilanti MI 445 3 M 14 0-99 10:57



Ypsilanti, MI
Provided by Everal Race Management and Gary Olsen